createdAt,value
2022-10-13T00:00:17.281Z,11.63
2022-10-13T00:03:02.058Z,11.67
2022-10-13T00:05:46.877Z,11.69
2022-10-13T00:08:31.625Z,11.69
2022-10-13T00:11:16.501Z,11.60
2022-10-13T00:14:01.208Z,11.57
2022-10-13T00:16:46.095Z,11.49
2022-10-13T00:19:31.177Z,11.62
2022-10-13T00:22:16.300Z,11.62
2022-10-13T00:25:01.215Z,11.66
2022-10-13T00:27:46.041Z,11.58
2022-10-13T00:30:30.622Z,11.53
2022-10-13T00:33:15.472Z,11.51
2022-10-13T00:36:00.195Z,11.49
2022-10-13T00:38:44.957Z,11.49
2022-10-13T00:41:29.677Z,11.49
2022-10-13T00:44:14.486Z,11.54
2022-10-13T00:46:59.450Z,11.58
2022-10-13T00:49:44.105Z,11.59
2022-10-13T00:52:28.906Z,11.56
2022-10-13T00:55:13.645Z,11.51
2022-10-13T00:58:02.662Z,11.44
2022-10-13T01:00:49.983Z,11.39
2022-10-13T01:03:34.658Z,11.44
2022-10-13T01:06:23.446Z,11.48
2022-10-13T01:09:08.920Z,11.49
2022-10-13T01:11:53.679Z,11.49
2022-10-13T01:14:38.628Z,11.46
2022-10-13T01:17:23.154Z,11.51
2022-10-13T01:20:07.835Z,11.52
2022-10-13T01:22:52.503Z,11.54
2022-10-13T01:25:37.447Z,11.57
2022-10-13T01:28:22.252Z,11.59
2022-10-13T01:31:07.115Z,11.61
2022-10-13T01:33:51.812Z,11.59
2022-10-13T01:36:36.614Z,11.55
2022-10-13T01:39:21.504Z,11.48
2022-10-13T01:42:06.247Z,11.39
2022-10-13T01:44:51.196Z,11.27
2022-10-13T01:47:35.885Z,11.20
2022-10-13T01:50:20.572Z,11.26
2022-10-13T01:53:05.434Z,11.29
2022-10-13T01:55:50.239Z,11.23
2022-10-13T01:58:35.014Z,11.21
2022-10-13T02:01:19.856Z,11.30
2022-10-13T02:04:04.595Z,11.28
2022-10-13T02:06:49.397Z,11.24
2022-10-13T02:09:34.165Z,11.20
2022-10-13T02:12:19.140Z,11.28
2022-10-13T02:15:04.146Z,11.31
2022-10-13T02:17:48.875Z,11.29
2022-10-13T02:20:33.637Z,11.18
2022-10-13T02:23:18.408Z,11.21
2022-10-13T02:26:03.236Z,11.21
2022-10-13T02:28:47.996Z,11.15
2022-10-13T02:31:32.809Z,11.09
2022-10-13T02:34:17.648Z,11.09
2022-10-13T02:37:02.418Z,11.06
2022-10-13T02:39:47.189Z,11.02
2022-10-13T02:42:32.046Z,11.02
2022-10-13T02:45:16.912Z,11.06
2022-10-13T02:48:02.865Z,11.03
2022-10-13T02:50:47.819Z,11.04
2022-10-13T02:53:32.405Z,11.03
2022-10-13T02:56:17.185Z,11.04
2022-10-13T02:59:02.008Z,11.06
2022-10-13T03:01:46.954Z,11.15
2022-10-13T03:04:31.681Z,11.14
2022-10-13T03:07:16.342Z,11.11
2022-10-13T03:10:01.052Z,11.12
2022-10-13T03:12:45.876Z,11.08
2022-10-13T03:15:30.668Z,11.01
2022-10-13T03:18:15.392Z,10.97
2022-10-13T03:21:00.270Z,11.01
2022-10-13T03:23:44.908Z,11.05
2022-10-13T03:26:29.711Z,11.08
2022-10-13T03:29:14.538Z,11.05
2022-10-13T03:31:59.323Z,11.02
2022-10-13T03:34:44.164Z,11.04
2022-10-13T03:37:28.827Z,11.01
2022-10-13T03:40:13.673Z,11.02
2022-10-13T03:42:58.381Z,11.04
2022-10-13T03:45:43.119Z,11.06
2022-10-13T03:48:27.887Z,11.06
2022-10-13T03:51:12.657Z,11.11
2022-10-13T03:53:57.401Z,11.19
2022-10-13T03:56:42.267Z,11.24
2022-10-13T03:59:26.999Z,11.30
2022-10-13T04:02:11.765Z,11.35
2022-10-13T04:04:56.561Z,11.33
2022-10-13T04:07:41.449Z,11.31
2022-10-13T04:10:26.327Z,11.32
2022-10-13T04:13:11.086Z,11.32
2022-10-13T04:15:55.943Z,11.28
2022-10-13T04:18:44.471Z,11.31
2022-10-13T04:21:29.448Z,11.33
2022-10-13T04:24:14.227Z,11.32
2022-10-13T04:26:58.977Z,11.33
2022-10-13T04:29:43.803Z,11.33
2022-10-13T04:32:28.605Z,11.39
2022-10-13T04:35:13.346Z,11.42
2022-10-13T04:37:58.021Z,11.46
2022-10-13T04:40:43.092Z,11.50
2022-10-13T04:43:27.767Z,11.50
2022-10-13T04:46:12.539Z,11.42
2022-10-13T04:48:57.322Z,11.40
2022-10-13T04:51:41.986Z,11.38
2022-10-13T04:54:26.901Z,11.39
2022-10-13T04:57:11.673Z,11.31
2022-10-13T04:59:56.592Z,11.25
2022-10-13T05:02:41.450Z,11.15
2022-10-13T05:05:26.388Z,11.19
2022-10-13T05:08:11.112Z,11.11
2022-10-13T05:10:56.092Z,11.07
2022-10-13T05:13:41.072Z,10.97
2022-10-13T05:16:25.805Z,10.98
2022-10-13T05:19:10.708Z,10.95
2022-10-13T05:21:55.473Z,11.04
2022-10-13T05:24:40.441Z,11.01
2022-10-13T05:27:25.208Z,10.96
2022-10-13T05:30:09.904Z,10.95
2022-10-13T05:32:54.575Z,10.92
2022-10-13T05:35:39.491Z,10.84
2022-10-13T05:38:26.148Z,10.84
2022-10-13T05:41:11.102Z,10.96
2022-10-13T05:43:55.920Z,11.01
2022-10-13T05:46:40.593Z,10.99
2022-10-13T05:49:25.401Z,10.97
2022-10-13T05:52:10.150Z,11.01
2022-10-13T05:54:54.957Z,10.95
2022-10-13T05:57:39.712Z,10.85
2022-10-13T06:00:24.485Z,10.86
2022-10-13T06:03:09.347Z,10.90
2022-10-13T06:05:54.059Z,11.01
2022-10-13T06:08:38.888Z,11.08
2022-10-13T06:11:23.548Z,11.11
2022-10-13T06:14:08.312Z,11.17
2022-10-13T06:16:52.999Z,11.26
2022-10-13T06:19:37.750Z,11.35
2022-10-13T06:22:22.731Z,11.43
2022-10-13T06:25:08.076Z,11.48
2022-10-13T06:27:52.740Z,11.50
2022-10-13T06:30:37.629Z,11.51
2022-10-13T06:33:22.414Z,11.55
2022-10-13T06:36:07.196Z,11.63
2022-10-13T06:38:52.147Z,11.66
2022-10-13T06:41:36.672Z,11.82
2022-10-13T06:44:21.559Z,11.91
2022-10-13T06:47:06.276Z,11.99
2022-10-13T06:49:51.132Z,11.95
2022-10-13T06:52:35.767Z,11.92
2022-10-13T06:55:20.552Z,11.88
2022-10-13T06:58:05.270Z,11.96
2022-10-13T07:00:50.228Z,11.92
2022-10-13T07:03:35.435Z,11.85
2022-10-13T07:06:20.197Z,11.82
2022-10-13T07:09:05.161Z,11.79
2022-10-13T07:11:49.801Z,11.72
2022-10-13T07:14:34.562Z,11.79
2022-10-13T07:17:19.463Z,11.81
2022-10-13T07:20:07.231Z,11.89
2022-10-13T07:22:52.462Z,12.03
2022-10-13T07:25:37.130Z,12.13
2022-10-13T07:28:22.074Z,12.31
2022-10-13T07:31:06.754Z,12.52
2022-10-13T07:33:51.415Z,12.71
2022-10-13T07:36:36.216Z,12.96
2022-10-13T07:39:21.043Z,13.28
2022-10-13T07:42:05.819Z,13.54
2022-10-13T07:44:50.518Z,13.76
2022-10-13T07:47:35.181Z,13.85
2022-10-13T07:50:19.826Z,13.90
2022-10-13T07:53:05.568Z,14.02
2022-10-13T07:55:50.430Z,14.03
2022-10-13T07:58:35.303Z,14.06
2022-10-13T08:01:20.024Z,14.13
2022-10-13T08:04:04.876Z,14.21
2022-10-13T08:06:49.491Z,14.06
2022-10-13T08:09:34.183Z,13.83
2022-10-13T08:12:19.283Z,13.73
2022-10-13T08:15:06.251Z,13.72
2022-10-13T08:17:51.549Z,13.87
2022-10-13T08:20:41.523Z,14.01
2022-10-13T08:23:28.572Z,14.14
2022-10-13T08:26:13.327Z,14.27
2022-10-13T08:29:16.777Z,14.38
2022-10-13T08:32:02.893Z,14.48
2022-10-13T08:34:47.686Z,14.55
2022-10-13T08:37:32.495Z,14.64
2022-10-13T08:40:17.382Z,14.76
2022-10-13T08:43:02.231Z,14.87
2022-10-13T08:45:47.007Z,15.04
2022-10-13T08:48:31.827Z,15.15
2022-10-13T08:51:16.637Z,15.25
2022-10-13T08:54:01.421Z,15.36
2022-10-13T08:56:46.029Z,15.39
2022-10-13T08:59:30.871Z,15.33
2022-10-13T09:02:15.681Z,15.25
2022-10-13T09:05:00.423Z,15.06
2022-10-13T09:07:45.214Z,14.93
2022-10-13T09:10:29.909Z,14.92
2022-10-13T09:13:14.809Z,15.04
2022-10-13T09:15:59.584Z,15.13
2022-10-13T09:18:44.406Z,15.08
2022-10-13T09:21:29.142Z,15.05
2022-10-13T09:24:13.899Z,15.09
2022-10-13T09:26:58.554Z,15.11
2022-10-13T09:29:43.414Z,15.25
2022-10-13T09:32:28.152Z,15.46
2022-10-13T09:35:12.876Z,15.65
2022-10-13T09:37:57.656Z,15.73
2022-10-13T09:43:32.355Z,16.36
2022-10-13T09:46:17.040Z,16.68
2022-10-13T09:49:01.817Z,16.88
2022-10-13T09:51:46.635Z,17.14
2022-10-13T09:54:31.399Z,17.27
2022-10-13T09:57:16.311Z,17.41
2022-10-13T10:02:47.110Z,17.11
2022-10-13T10:05:31.652Z,17.17
2022-10-13T10:08:16.374Z,17.00
2022-10-13T10:11:01.123Z,16.78
2022-10-13T10:13:46.009Z,16.67
2022-10-13T10:16:30.643Z,16.37
2022-10-13T10:19:15.416Z,16.32
2022-10-13T10:22:00.155Z,16.24
2022-10-13T10:24:44.842Z,16.36
2022-10-13T10:27:29.683Z,16.33
2022-10-13T10:30:14.548Z,16.35
2022-10-13T10:32:59.220Z,16.60
2022-10-13T10:35:43.868Z,16.72
2022-10-13T10:38:28.697Z,17.00
2022-10-13T10:41:13.343Z,17.28
2022-10-13T10:43:58.060Z,17.49
2022-10-13T10:46:42.835Z,17.71
2022-10-13T10:49:27.794Z,17.64
2022-10-13T10:52:12.454Z,17.47
2022-10-13T10:54:57.389Z,17.60
2022-10-13T10:57:42.156Z,17.65
2022-10-13T11:03:12.822Z,17.73
2022-10-13T11:05:57.646Z,17.54
2022-10-13T11:08:42.435Z,17.12
2022-10-13T11:11:29.410Z,16.83
2022-10-13T11:14:15.911Z,16.76
2022-10-13T11:17:00.750Z,16.84
2022-10-13T11:19:45.509Z,17.02
2022-10-13T11:22:30.473Z,17.15
2022-10-13T11:25:15.153Z,17.36
2022-10-13T11:27:59.969Z,17.44
2022-10-13T11:30:44.782Z,17.63
2022-10-13T11:33:29.540Z,17.87
2022-10-13T11:36:14.324Z,17.93
2022-10-13T11:38:59.064Z,17.89
2022-10-13T11:41:43.839Z,17.76
2022-10-13T11:47:18.714Z,17.57
2022-10-13T11:50:03.716Z,17.48
2022-10-13T11:52:48.471Z,17.37
2022-10-13T11:55:33.375Z,17.09
2022-10-13T11:58:17.998Z,16.74
2022-10-13T12:01:02.703Z,16.80
2022-10-13T12:03:47.437Z,16.90
2022-10-13T12:06:32.268Z,16.95
2022-10-13T12:09:16.972Z,17.17
2022-10-13T12:12:01.891Z,17.45
2022-10-13T12:14:47.234Z,17.68
2022-10-13T12:17:32.301Z,17.92
2022-10-13T12:20:17.503Z,18.05
2022-10-13T12:23:02.154Z,18.14
2022-10-13T12:25:46.779Z,18.11
2022-10-13T12:28:31.526Z,17.86
2022-10-13T12:31:16.803Z,17.63
2022-10-13T12:34:01.505Z,17.68
2022-10-13T12:36:46.379Z,17.85
2022-10-13T12:39:31.079Z,18.09
2022-10-13T12:42:15.751Z,18.20
2022-10-13T12:45:00.510Z,18.28
2022-10-13T12:47:45.424Z,18.41
2022-10-13T12:50:30.470Z,18.55
2022-10-13T12:53:15.218Z,18.61
2022-10-13T12:55:59.864Z,18.51
2022-10-13T12:58:44.527Z,18.22
2022-10-13T13:01:29.367Z,17.94
2022-10-13T13:04:14.262Z,18.01
2022-10-13T13:06:58.996Z,18.05
2022-10-13T13:09:43.657Z,18.00
2022-10-13T13:12:28.434Z,18.03
2022-10-13T13:15:13.135Z,18.03
2022-10-13T13:17:59.107Z,18.16
2022-10-13T13:20:44.212Z,18.22
2022-10-13T13:23:28.937Z,18.25
2022-10-13T13:26:13.879Z,18.10
2022-10-13T13:28:58.689Z,17.66
2022-10-13T13:31:43.419Z,17.41
2022-10-13T13:34:28.254Z,17.21
2022-10-13T13:37:12.990Z,17.05
2022-10-13T13:39:57.718Z,16.99
2022-10-13T13:42:42.246Z,17.04
2022-10-13T13:45:27.112Z,17.12
2022-10-13T13:48:11.816Z,17.06
2022-10-13T13:50:56.391Z,17.04
2022-10-13T13:53:40.967Z,17.04
2022-10-13T13:56:25.665Z,16.86
2022-10-13T13:59:10.444Z,16.73
2022-10-13T14:01:55.271Z,16.78
2022-10-13T14:04:39.982Z,17.05
2022-10-13T14:07:24.883Z,17.29
2022-10-13T14:10:09.772Z,17.38
2022-10-13T14:12:54.519Z,17.47
2022-10-13T14:15:39.248Z,17.46
2022-10-13T14:18:24.091Z,17.51
2022-10-13T14:21:08.851Z,17.50
2022-10-13T14:23:53.506Z,17.39
2022-10-13T14:26:38.322Z,17.24
2022-10-13T14:29:23.071Z,17.21
2022-10-13T14:32:07.879Z,17.26
2022-10-13T14:34:52.705Z,17.27
2022-10-13T14:37:37.817Z,17.22
2022-10-13T14:40:22.935Z,17.21
2022-10-13T14:43:07.625Z,17.29
2022-10-13T14:45:52.434Z,17.27
2022-10-13T14:48:37.110Z,16.93
2022-10-13T14:51:21.990Z,16.65
2022-10-13T14:54:06.713Z,16.47
2022-10-13T14:56:51.444Z,16.22
2022-10-13T14:59:36.189Z,16.02
2022-10-13T15:02:20.949Z,15.93
2022-10-13T15:05:05.706Z,15.96
2022-10-13T15:07:50.558Z,16.02
2022-10-13T15:10:35.544Z,16.04
2022-10-13T15:13:20.193Z,16.16
2022-10-13T15:16:04.898Z,16.22
2022-10-13T15:18:49.601Z,16.30
2022-10-13T15:21:34.328Z,16.37
2022-10-13T15:24:19.045Z,16.38
2022-10-13T15:27:03.995Z,16.41
2022-10-13T15:29:48.929Z,16.36
2022-10-13T15:32:33.753Z,16.29
2022-10-13T15:35:18.526Z,16.00
2022-10-13T15:38:03.222Z,15.88
2022-10-13T15:40:47.988Z,15.78
2022-10-13T15:43:32.784Z,15.78
2022-10-13T15:46:17.716Z,15.65
2022-10-13T15:49:02.414Z,15.58
2022-10-13T15:51:47.279Z,15.49
2022-10-13T15:54:31.943Z,15.46
2022-10-13T15:57:16.777Z,15.43
2022-10-13T16:00:01.518Z,15.41
2022-10-13T16:02:46.244Z,15.46
2022-10-13T16:05:31.045Z,15.53
2022-10-13T16:08:15.788Z,15.58
2022-10-13T16:11:00.533Z,15.64
2022-10-13T16:13:45.261Z,15.65
2022-10-13T16:16:30.095Z,15.65
2022-10-13T16:19:15.049Z,15.68
2022-10-13T16:22:00.154Z,15.62
2022-10-13T16:24:44.722Z,15.65
2022-10-13T16:27:29.476Z,15.61
2022-10-13T16:30:14.272Z,15.63
2022-10-13T16:32:58.997Z,15.58
2022-10-13T16:35:43.796Z,15.60
2022-10-13T16:38:28.467Z,15.55
2022-10-13T16:41:13.272Z,15.47
2022-10-13T16:43:57.926Z,15.37
2022-10-13T16:46:42.842Z,15.36
2022-10-13T16:49:27.415Z,15.26
2022-10-13T16:52:12.118Z,15.14
2022-10-13T16:54:56.687Z,15.09
2022-10-13T16:57:41.472Z,15.02
2022-10-13T17:00:26.380Z,14.94
2022-10-13T17:03:11.299Z,14.86
2022-10-13T17:05:56.121Z,14.80
2022-10-13T17:08:40.847Z,14.77
2022-10-13T17:11:25.767Z,14.77
2022-10-13T17:14:10.415Z,14.77
2022-10-13T17:16:57.722Z,14.76
2022-10-13T17:19:43.037Z,14.77
2022-10-13T17:22:27.695Z,14.77
2022-10-13T17:25:12.537Z,14.75
2022-10-13T17:27:57.267Z,14.72
2022-10-13T17:30:42.169Z,14.73
2022-10-13T17:33:26.861Z,14.69
2022-10-13T17:36:11.662Z,14.62
2022-10-13T17:38:56.471Z,14.58
2022-10-13T17:41:41.271Z,14.53
2022-10-13T17:44:25.949Z,14.52
2022-10-13T17:47:10.840Z,14.51
2022-10-13T17:49:55.528Z,14.51
2022-10-13T17:52:40.281Z,14.48
2022-10-13T17:55:25.035Z,14.39
2022-10-13T17:58:09.914Z,14.34
2022-10-13T18:01:12.410Z,14.36
2022-10-13T18:03:58.607Z,14.32
2022-10-13T18:06:44.071Z,14.38
2022-10-13T18:09:29.164Z,14.39
2022-10-13T18:12:13.935Z,14.39
2022-10-13T18:14:58.821Z,14.36
2022-10-13T18:17:43.554Z,14.27
2022-10-13T18:20:28.404Z,14.17
2022-10-13T18:23:14.901Z,14.16
2022-10-13T18:25:59.878Z,14.09
2022-10-13T18:28:44.772Z,14.11
2022-10-13T18:31:30.060Z,14.14
2022-10-13T18:34:14.774Z,14.14
2022-10-13T18:36:59.543Z,14.12
2022-10-13T18:39:44.490Z,14.09
2022-10-13T18:42:29.124Z,14.12
2022-10-13T18:45:13.884Z,14.21
2022-10-13T18:47:58.500Z,14.17
2022-10-13T18:50:43.265Z,14.14
2022-10-13T18:53:28.194Z,14.14
2022-10-13T18:56:12.947Z,14.17
2022-10-13T18:58:59.693Z,14.25
2022-10-13T19:01:45.122Z,14.24
2022-10-13T19:04:29.898Z,14.25
2022-10-13T19:07:14.680Z,14.24
2022-10-13T19:09:59.441Z,14.20
2022-10-13T19:12:44.170Z,14.25
2022-10-13T19:15:28.892Z,14.23
2022-10-13T19:18:13.791Z,14.21
2022-10-13T19:20:58.663Z,14.17
2022-10-13T19:23:43.558Z,14.16
2022-10-13T19:26:28.178Z,14.16
2022-10-13T19:29:13.079Z,14.22
2022-10-13T19:31:57.807Z,14.28
2022-10-13T19:34:42.575Z,14.29
2022-10-13T19:37:27.337Z,14.32
2022-10-13T19:40:12.155Z,14.34
2022-10-13T19:42:56.937Z,14.36
2022-10-13T19:45:41.676Z,14.36
2022-10-13T19:48:26.464Z,14.38
2022-10-13T19:51:11.207Z,14.38
2022-10-13T19:53:56.007Z,14.31
2022-10-13T19:56:40.646Z,14.23
2022-10-13T19:59:25.414Z,14.23
2022-10-13T20:02:10.018Z,14.20
2022-10-13T20:04:54.807Z,14.21
2022-10-13T20:07:39.487Z,14.20
2022-10-13T20:10:24.374Z,14.16
2022-10-13T20:13:09.287Z,14.11
2022-10-13T20:15:53.980Z,13.93
2022-10-13T20:18:38.630Z,13.83
2022-10-13T20:21:23.284Z,13.85
2022-10-13T20:24:08.209Z,13.86
2022-10-13T20:26:52.820Z,13.86
2022-10-13T20:29:37.551Z,13.89
2022-10-13T20:32:22.363Z,13.88
2022-10-13T20:35:07.188Z,13.91
2022-10-13T20:37:51.779Z,13.91
2022-10-13T20:40:36.522Z,13.86
2022-10-13T20:43:25.653Z,13.79
2022-10-13T20:46:10.642Z,13.76
2022-10-13T20:49:10.572Z,13.76
2022-10-13T20:51:56.456Z,13.74
2022-10-13T20:54:41.229Z,13.74
2022-10-13T20:57:25.907Z,13.79
2022-10-13T21:00:10.671Z,13.79
2022-10-13T21:02:58.824Z,13.81
2022-10-13T21:05:46.901Z,13.89
2022-10-13T21:08:31.728Z,14.00
2022-10-13T21:11:16.525Z,14.07
2022-10-13T21:14:01.286Z,14.06
2022-10-13T21:16:46.046Z,14.03
2022-10-13T21:19:30.737Z,13.93
2022-10-13T21:22:15.386Z,13.91
2022-10-13T21:25:00.178Z,13.91
2022-10-13T21:27:44.879Z,13.93
2022-10-13T21:30:29.750Z,13.97
2022-10-13T21:33:14.345Z,13.94
2022-10-13T21:35:59.156Z,13.93
2022-10-13T21:38:43.857Z,13.91
2022-10-13T21:41:28.592Z,13.88
2022-10-13T21:44:13.387Z,13.76
2022-10-13T21:46:58.309Z,13.68
2022-10-13T21:49:43.411Z,13.60
2022-10-13T21:52:28.089Z,13.53
2022-10-13T21:55:12.681Z,13.49
2022-10-13T21:58:00.582Z,13.45
2022-10-13T22:00:47.831Z,13.36
2022-10-13T22:03:32.473Z,13.27
2022-10-13T22:06:19.168Z,13.22
2022-10-13T22:09:04.256Z,13.11
2022-10-13T22:11:51.833Z,13.10
2022-10-13T22:14:40.236Z,13.12
2022-10-13T22:17:25.067Z,13.13
2022-10-13T22:20:09.789Z,13.16
2022-10-13T22:22:54.424Z,13.20
2022-10-13T22:25:39.160Z,13.21
2022-10-13T22:28:24.150Z,13.20
2022-10-13T22:31:08.793Z,13.26
2022-10-13T22:33:53.528Z,13.27
2022-10-13T22:36:42.196Z,13.20
2022-10-13T22:39:28.317Z,13.14
2022-10-13T22:42:13.064Z,13.11
2022-10-13T22:44:57.845Z,13.05
2022-10-13T22:47:42.623Z,13.00
2022-10-13T22:50:27.485Z,12.87
2022-10-13T22:53:12.222Z,12.82
2022-10-13T22:55:57.185Z,12.73
2022-10-13T22:58:41.897Z,12.69
2022-10-13T23:01:26.729Z,12.70
2022-10-13T23:04:11.435Z,12.71
2022-10-13T23:06:56.303Z,12.72
2022-10-13T23:09:41.078Z,12.67
2022-10-13T23:12:25.849Z,12.64
2022-10-13T23:15:10.740Z,12.66
2022-10-13T23:17:55.600Z,12.60
2022-10-13T23:20:40.317Z,12.61
2022-10-13T23:23:24.984Z,12.51
2022-10-13T23:26:09.821Z,12.45
2022-10-13T23:28:54.694Z,12.43
2022-10-13T23:31:39.839Z,12.43
2022-10-13T23:34:24.611Z,12.36
2022-10-13T23:37:09.437Z,12.33
2022-10-13T23:39:54.138Z,12.38
2022-10-13T23:42:39.028Z,12.43
2022-10-13T23:45:23.736Z,12.41
2022-10-13T23:48:08.510Z,12.44
2022-10-13T23:50:53.337Z,12.52
2022-10-13T23:53:38.211Z,12.60
2022-10-13T23:56:22.923Z,12.64
2022-10-13T23:59:07.720Z,12.62
